sensor_id;sensor_type;location;lat;lon;timestamp;P1;durP1;ratioP1;P2;durP2;ratioP2
19285;SDS011;9776;50.798;6.430;2022-11-20T00:00:04;8.35;;;7.75;;
19285;SDS011;9776;50.798;6.430;2022-11-20T00:02:31;7.90;;;7.30;;
19285;SDS011;9776;50.798;6.430;2022-11-20T00:04:57;7.75;;;7.20;;
19285;SDS011;9776;50.798;6.430;2022-11-20T00:07:25;7.35;;;6.85;;
19285;SDS011;9776;50.798;6.430;2022-11-20T00:09:52;8.25;;;7.65;;
19285;SDS011;9776;50.798;6.430;2022-11-20T00:12:19;7.60;;;7.07;;
19285;SDS011;9776;50.798;6.430;2022-11-20T00:14:45;8.38;;;7.68;;
19285;SDS011;9776;50.798;6.430;2022-11-20T00:17:12;7.45;;;6.95;;
19285;SDS011;9776;50.798;6.430;2022-11-20T00:19:38;8.50;;;7.90;;
19285;SDS011;9776;50.798;6.430;2022-11-20T00:22:05;8.23;;;7.63;;
19285;SDS011;9776;50.798;6.430;2022-11-20T00:24:33;8.65;;;8.05;;
19285;SDS011;9776;50.798;6.430;2022-11-20T00:26:59;8.30;;;7.70;;
19285;SDS011;9776;50.798;6.430;2022-11-20T00:29:26;8.00;;;7.47;;
19285;SDS011;9776;50.798;6.430;2022-11-20T00:31:53;8.50;;;7.90;;
19285;SDS011;9776;50.798;6.430;2022-11-20T00:34:19;8.50;;;7.90;;
19285;SDS011;9776;50.798;6.430;2022-11-20T00:36:46;11.65;;;10.85;;
19285;SDS011;9776;50.798;6.430;2022-11-20T00:39:12;9.15;;;8.52;;
19285;SDS011;9776;50.798;6.430;2022-11-20T00:41:40;8.45;;;7.75;;
19285;SDS011;9776;50.798;6.430;2022-11-20T00:44:07;8.07;;;7.53;;
19285;SDS011;9776;50.798;6.430;2022-11-20T00:46:34;7.55;;;7.03;;
19285;SDS011;9776;50.798;6.430;2022-11-20T00:49:00;8.05;;;7.55;;
19285;SDS011;9776;50.798;6.430;2022-11-20T00:51:27;11.68;;;10.80;;
19285;SDS011;9776;50.798;6.430;2022-11-20T00:53:54;8.30;;;7.70;;
19285;SDS011;9776;50.798;6.430;2022-11-20T00:56:22;8.75;;;8.15;;
19285;SDS011;9776;50.798;6.430;2022-11-20T00:58:50;7.95;;;7.40;;
19285;SDS011;9776;50.798;6.430;2022-11-20T01:01:17;7.75;;;7.20;;
19285;SDS011;9776;50.798;6.430;2022-11-20T01:03:46;8.52;;;7.93;;
19285;SDS011;9776;50.798;6.430;2022-11-20T01:06:15;9.23;;;8.52;;
19285;SDS011;9776;50.798;6.430;2022-11-20T01:08:43;13.05;;;12.05;;
19285;SDS011;9776;50.798;6.430;2022-11-20T01:11:11;11.48;;;10.68;;
19285;SDS011;9776;50.798;6.430;2022-11-20T01:13:41;11.30;;;10.50;;
19285;SDS011;9776;50.798;6.430;2022-11-20T01:16:10;9.73;;;9.00;;
19285;SDS011;9776;50.798;6.430;2022-11-20T01:18:39;11.18;;;10.27;;
19285;SDS011;9776;50.798;6.430;2022-11-20T01:21:07;11.10;;;10.20;;
19285;SDS011;9776;50.798;6.430;2022-11-20T01:23:36;13.20;;;12.20;;
19285;SDS011;9776;50.798;6.430;2022-11-20T01:26:05;12.65;;;11.68;;
19285;SDS011;9776;50.798;6.430;2022-11-20T01:28:34;10.70;;;9.90;;
19285;SDS011;9776;50.798;6.430;2022-11-20T01:31:01;11.38;;;10.48;;
19285;SDS011;9776;50.798;6.430;2022-11-20T01:33:37;9.73;;;9.02;;
19285;SDS011;9776;50.798;6.430;2022-11-20T01:36:04;13.50;;;12.40;;
19285;SDS011;9776;50.798;6.430;2022-11-20T01:38:31;11.73;;;10.82;;
19285;SDS011;9776;50.798;6.430;2022-11-20T01:40:58;9.05;;;8.38;;
19285;SDS011;9776;50.798;6.430;2022-11-20T01:43:24;11.55;;;10.65;;
19285;SDS011;9776;50.798;6.430;2022-11-20T01:46:01;9.27;;;8.57;;
19285;SDS011;9776;50.798;6.430;2022-11-20T01:48:42;12.48;;;11.48;;
19285;SDS011;9776;50.798;6.430;2022-11-20T01:51:16;10.07;;;9.27;;
19285;SDS011;9776;50.798;6.430;2022-11-20T01:53:46;8.55;;;7.90;;
19285;SDS011;9776;50.798;6.430;2022-11-20T01:56:14;7.43;;;6.93;;
19285;SDS011;9776;50.798;6.430;2022-11-20T01:58:43;10.07;;;9.27;;
19285;SDS011;9776;50.798;6.430;2022-11-20T02:01:12;8.32;;;7.72;;
19285;SDS011;9776;50.798;6.430;2022-11-20T02:03:39;8.65;;;7.95;;
19285;SDS011;9776;50.798;6.430;2022-11-20T02:06:10;8.75;;;8.15;;
19285;SDS011;9776;50.798;6.430;2022-11-20T02:08:41;9.43;;;8.73;;
19285;SDS011;9776;50.798;6.430;2022-11-20T02:11:08;8.90;;;8.20;;
19285;SDS011;9776;50.798;6.430;2022-11-20T02:13:35;8.82;;;8.23;;
19285;SDS011;9776;50.798;6.430;2022-11-20T02:16:10;8.27;;;7.60;;
19285;SDS011;9776;50.798;6.430;2022-11-20T02:18:41;7.90;;;7.35;;
19285;SDS011;9776;50.798;6.430;2022-11-20T02:21:18;8.38;;;7.72;;
19285;SDS011;9776;50.798;6.430;2022-11-20T02:26:38;8.57;;;7.97;;
19285;SDS011;9776;50.798;6.430;2022-11-20T02:29:08;8.95;;;8.25;;
19285;SDS011;9776;50.798;6.430;2022-11-20T02:31:36;8.30;;;7.70;;
19285;SDS011;9776;50.798;6.430;2022-11-20T02:34:04;8.07;;;7.47;;
19285;SDS011;9776;50.798;6.430;2022-11-20T02:36:31;8.45;;;7.75;;
19285;SDS011;9776;50.798;6.430;2022-11-20T02:39:00;8.80;;;8.20;;
19285;SDS011;9776;50.798;6.430;2022-11-20T02:41:33;8.13;;;7.53;;
19285;SDS011;9776;50.798;6.430;2022-11-20T02:44:00;8.27;;;7.68;;
19285;SDS011;9776;50.798;6.430;2022-11-20T02:46:27;8.25;;;7.65;;
19285;SDS011;9776;50.798;6.430;2022-11-20T02:48:54;8.07;;;7.47;;
19285;SDS011;9776;50.798;6.430;2022-11-20T02:51:21;8.48;;;7.88;;
19285;SDS011;9776;50.798;6.430;2022-11-20T02:53:48;7.90;;;7.32;;
19285;SDS011;9776;50.798;6.430;2022-11-20T02:56:14;8.40;;;7.80;;
19285;SDS011;9776;50.798;6.430;2022-11-20T02:58:43;8.02;;;7.43;;
19285;SDS011;9776;50.798;6.430;2022-11-20T03:01:09;8.00;;;7.40;;
19285;SDS011;9776;50.798;6.430;2022-11-20T03:03:36;7.97;;;7.38;;
19285;SDS011;9776;50.798;6.430;2022-11-20T03:06:03;7.90;;;7.30;;
19285;SDS011;9776;50.798;6.430;2022-11-20T03:08:29;8.00;;;7.32;;
19285;SDS011;9776;50.798;6.430;2022-11-20T03:10:56;7.85;;;7.25;;
19285;SDS011;9776;50.798;6.430;2022-11-20T03:13:24;8.57;;;7.88;;
19285;SDS011;9776;50.798;6.430;2022-11-20T03:15:52;8.05;;;7.45;;
19285;SDS011;9776;50.798;6.430;2022-11-20T03:18:19;8.18;;;7.57;;
19285;SDS011;9776;50.798;6.430;2022-11-20T03:20:45;8.07;;;7.47;;
19285;SDS011;9776;50.798;6.430;2022-11-20T03:23:12;8.50;;;7.90;;
19285;SDS011;9776;50.798;6.430;2022-11-20T03:25:38;8.80;;;8.10;;
19285;SDS011;9776;50.798;6.430;2022-11-20T03:28:05;8.57;;;7.88;;
19285;SDS011;9776;50.798;6.430;2022-11-20T03:30:32;8.60;;;8.00;;
19285;SDS011;9776;50.798;6.430;2022-11-20T03:33:00;8.23;;;7.63;;
19285;SDS011;9776;50.798;6.430;2022-11-20T03:35:26;8.80;;;8.20;;
19285;SDS011;9776;50.798;6.430;2022-11-20T03:37:53;8.20;;;7.50;;
19285;SDS011;9776;50.798;6.430;2022-11-20T03:40:20;8.25;;;7.65;;
19285;SDS011;9776;50.798;6.430;2022-11-20T03:42:46;8.85;;;8.15;;
19285;SDS011;9776;50.798;6.430;2022-11-20T03:45:13;9.50;;;8.80;;
19285;SDS011;9776;50.798;6.430;2022-11-20T03:47:41;8.80;;;8.20;;
19285;SDS011;9776;50.798;6.430;2022-11-20T03:50:10;8.75;;;8.15;;
19285;SDS011;9776;50.798;6.430;2022-11-20T03:52:38;8.25;;;7.65;;
19285;SDS011;9776;50.798;6.430;2022-11-20T03:55:05;8.32;;;7.72;;
19285;SDS011;9776;50.798;6.430;2022-11-20T03:57:33;8.95;;;8.25;;
19285;SDS011;9776;50.798;6.430;2022-11-20T03:59:59;8.25;;;7.65;;
19285;SDS011;9776;50.798;6.430;2022-11-20T04:02:26;8.50;;;7.90;;
19285;SDS011;9776;50.798;6.430;2022-11-20T04:04:53;8.27;;;7.68;;
19285;SDS011;9776;50.798;6.430;2022-11-20T04:07:21;8.93;;;8.23;;
19285;SDS011;9776;50.798;6.430;2022-11-20T04:09:47;7.88;;;7.28;;
19285;SDS011;9776;50.798;6.430;2022-11-20T04:12:14;8.27;;;7.68;;
19285;SDS011;9776;50.798;6.430;2022-11-20T04:14:40;7.95;;;7.35;;
19285;SDS011;9776;50.798;6.430;2022-11-20T04:17:07;8.55;;;7.95;;
19285;SDS011;9776;50.798;6.430;2022-11-20T04:19:34;8.20;;;7.60;;
19285;SDS011;9776;50.798;6.430;2022-11-20T04:22:00;8.13;;;7.53;;
19285;SDS011;9776;50.798;6.430;2022-11-20T04:24:28;8.23;;;7.47;;
19285;SDS011;9776;50.798;6.430;2022-11-20T04:26:55;8.18;;;7.57;;
19285;SDS011;9776;50.798;6.430;2022-11-20T04:29:21;9.20;;;8.50;;
19285;SDS011;9776;50.798;6.430;2022-11-20T04:31:48;7.93;;;7.35;;
19285;SDS011;9776;50.798;6.430;2022-11-20T04:34:15;9.15;;;8.45;;
19285;SDS011;9776;50.798;6.430;2022-11-20T04:36:41;8.27;;;7.68;;
19285;SDS011;9776;50.798;6.430;2022-11-20T04:39:11;8.00;;;7.43;;
19285;SDS011;9776;50.798;6.430;2022-11-20T04:41:40;8.57;;;7.97;;
19285;SDS011;9776;50.798;6.430;2022-11-20T04:44:07;8.63;;;7.93;;
19285;SDS011;9776;50.798;6.430;2022-11-20T04:46:35;7.97;;;7.38;;
19285;SDS011;9776;50.798;6.430;2022-11-20T04:49:02;8.68;;;8.07;;
19285;SDS011;9776;50.798;6.430;2022-11-20T04:51:30;8.20;;;7.60;;
19285;SDS011;9776;50.798;6.430;2022-11-20T04:53:56;8.18;;;7.57;;
19285;SDS011;9776;50.798;6.430;2022-11-20T04:56:23;8.23;;;7.63;;
19285;SDS011;9776;50.798;6.430;2022-11-20T04:58:51;8.88;;;8.18;;
19285;SDS011;9776;50.798;6.430;2022-11-20T05:01:18;8.80;;;8.20;;
19285;SDS011;9776;50.798;6.430;2022-11-20T05:03:47;8.10;;;7.50;;
19285;SDS011;9776;50.798;6.430;2022-11-20T05:06:15;8.40;;;7.80;;
19285;SDS011;9776;50.798;6.430;2022-11-20T05:08:43;8.75;;;8.05;;
19285;SDS011;9776;50.798;6.430;2022-11-20T05:11:10;8.75;;;8.13;;
19285;SDS011;9776;50.798;6.430;2022-11-20T05:13:39;8.60;;;8.00;;
19285;SDS011;9776;50.798;6.430;2022-11-20T05:16:08;8.80;;;8.13;;
19285;SDS011;9776;50.798;6.430;2022-11-20T05:18:36;8.95;;;8.35;;
19285;SDS011;9776;50.798;6.430;2022-11-20T05:21:03;8.68;;;8.07;;
19285;SDS011;9776;50.798;6.430;2022-11-20T05:23:31;8.40;;;7.80;;
19285;SDS011;9776;50.798;6.430;2022-11-20T05:25:59;7.93;;;7.32;;
19285;SDS011;9776;50.798;6.430;2022-11-20T05:28:27;8.57;;;7.97;;
19285;SDS011;9776;50.798;6.430;2022-11-20T05:30:54;8.27;;;7.68;;
19285;SDS011;9776;50.798;6.430;2022-11-20T05:33:23;8.82;;;8.13;;
19285;SDS011;9776;50.798;6.430;2022-11-20T05:35:49;8.98;;;8.27;;
19285;SDS011;9776;50.798;6.430;2022-11-20T05:38:16;8.77;;;8.07;;
19285;SDS011;9776;50.798;6.430;2022-11-20T05:40:42;8.50;;;7.80;;
19285;SDS011;9776;50.798;6.430;2022-11-20T05:43:09;8.50;;;7.90;;
19285;SDS011;9776;50.798;6.430;2022-11-20T05:45:36;8.00;;;7.40;;
19285;SDS011;9776;50.798;6.430;2022-11-20T05:48:02;8.02;;;7.43;;
19285;SDS011;9776;50.798;6.430;2022-11-20T05:50:30;8.52;;;7.82;;
19285;SDS011;9776;50.798;6.430;2022-11-20T05:52:57;9.10;;;8.40;;
19285;SDS011;9776;50.798;6.430;2022-11-20T05:55:25;7.85;;;7.15;;
19285;SDS011;9776;50.798;6.430;2022-11-20T05:57:52;9.23;;;8.52;;
19285;SDS011;9776;50.798;6.430;2022-11-20T06:00:19;8.15;;;7.55;;
19285;SDS011;9776;50.798;6.430;2022-11-20T06:02:45;8.55;;;7.88;;
19285;SDS011;9776;50.798;6.430;2022-11-20T06:05:12;8.07;;;7.47;;
19285;SDS011;9776;50.798;6.430;2022-11-20T06:07:40;8.30;;;7.70;;
19285;SDS011;9776;50.798;6.430;2022-11-20T06:10:07;8.23;;;7.47;;
19285;SDS011;9776;50.798;6.430;2022-11-20T06:12:34;8.18;;;7.57;;
19285;SDS011;9776;50.798;6.430;2022-11-20T06:15:01;8.52;;;7.88;;
19285;SDS011;9776;50.798;6.430;2022-11-20T06:17:27;8.90;;;8.23;;
19285;SDS011;9776;50.798;6.430;2022-11-20T06:19:54;8.80;;;8.20;;
19285;SDS011;9776;50.798;6.430;2022-11-20T06:22:21;8.38;;;7.78;;
19285;SDS011;9776;50.798;6.430;2022-11-20T06:24:49;8.30;;;7.63;;
19285;SDS011;9776;50.798;6.430;2022-11-20T06:27:15;8.50;;;7.80;;
19285;SDS011;9776;50.798;6.430;2022-11-20T06:29:42;9.27;;;8.57;;
19285;SDS011;9776;50.798;6.430;2022-11-20T06:32:09;8.52;;;7.82;;
19285;SDS011;9776;50.798;6.430;2022-11-20T06:34:35;8.90;;;8.20;;
19285;SDS011;9776;50.798;6.430;2022-11-20T06:37:02;8.60;;;8.00;;
19285;SDS011;9776;50.798;6.430;2022-11-20T06:39:29;9.10;;;8.40;;
19285;SDS011;9776;50.798;6.430;2022-11-20T06:41:56;8.30;;;7.70;;
19285;SDS011;9776;50.798;6.430;2022-11-20T06:44:23;8.73;;;8.02;;
19285;SDS011;9776;50.798;6.430;2022-11-20T06:46:50;8.80;;;8.18;;
19285;SDS011;9776;50.798;6.430;2022-11-20T06:49:16;8.93;;;8.23;;
19285;SDS011;9776;50.798;6.430;2022-11-20T06:51:43;8.55;;;7.90;;
19285;SDS011;9776;50.798;6.430;2022-11-20T06:54:09;8.77;;;8.07;;
19285;SDS011;9776;50.798;6.430;2022-11-20T06:56:36;8.98;;;8.27;;
19285;SDS011;9776;50.798;6.430;2022-11-20T06:59:05;9.70;;;8.93;;
19285;SDS011;9776;50.798;6.430;2022-11-20T07:01:32;8.20;;;7.60;;
19285;SDS011;9776;50.798;6.430;2022-11-20T07:04:00;7.40;;;6.80;;
19285;SDS011;9776;50.798;6.430;2022-11-20T07:06:27;6.85;;;6.35;;
19285;SDS011;9776;50.798;6.430;2022-11-20T07:08:53;7.22;;;6.63;;
19285;SDS011;9776;50.798;6.430;2022-11-20T07:11:20;6.78;;;6.28;;
19285;SDS011;9776;50.798;6.430;2022-11-20T07:13:46;6.28;;;5.85;;
19285;SDS011;9776;50.798;6.430;2022-11-20T07:16:14;6.72;;;6.13;;
19285;SDS011;9776;50.798;6.430;2022-11-20T07:18:41;6.65;;;6.15;;
19285;SDS011;9776;50.798;6.430;2022-11-20T07:21:08;7.20;;;6.68;;
19285;SDS011;9776;50.798;6.430;2022-11-20T07:23:36;6.85;;;6.35;;
19285;SDS011;9776;50.798;6.430;2022-11-20T07:26:03;7.20;;;6.70;;
19285;SDS011;9776;50.798;6.430;2022-11-20T07:28:30;6.88;;;6.38;;
19285;SDS011;9776;50.798;6.430;2022-11-20T07:30:57;7.25;;;6.65;;
19285;SDS011;9776;50.798;6.430;2022-11-20T07:33:26;6.72;;;6.22;;
19285;SDS011;9776;50.798;6.430;2022-11-20T07:35:52;6.85;;;6.35;;
19285;SDS011;9776;50.798;6.430;2022-11-20T07:38:19;6.57;;;6.18;;
19285;SDS011;9776;50.798;6.430;2022-11-20T07:40:46;6.10;;;5.70;;
19285;SDS011;9776;50.798;6.430;2022-11-20T07:43:12;6.82;;;6.32;;
19285;SDS011;9776;50.798;6.430;2022-11-20T07:45:39;6.22;;;5.82;;
19285;SDS011;9776;50.798;6.430;2022-11-20T07:48:06;6.35;;;5.85;;
19285;SDS011;9776;50.798;6.430;2022-11-20T07:50:34;7.43;;;6.82;;
19285;SDS011;9776;50.798;6.430;2022-11-20T07:53:01;7.45;;;6.95;;
19285;SDS011;9776;50.798;6.430;2022-11-20T07:55:28;6.82;;;6.32;;
19285;SDS011;9776;50.798;6.430;2022-11-20T07:57:55;7.07;;;6.57;;
19285;SDS011;9776;50.798;6.430;2022-11-20T08:00:22;6.82;;;6.32;;
19285;SDS011;9776;50.798;6.430;2022-11-20T08:02:49;6.80;;;6.30;;
19285;SDS011;9776;50.798;6.430;2022-11-20T08:05:16;6.78;;;6.28;;
19285;SDS011;9776;50.798;6.430;2022-11-20T08:07:44;6.05;;;5.65;;
19285;SDS011;9776;50.798;6.430;2022-11-20T08:10:12;6.65;;;6.15;;
19285;SDS011;9776;50.798;6.430;2022-11-20T08:12:43;6.93;;;6.45;;
19285;SDS011;9776;50.798;6.430;2022-11-20T08:15:28;6.13;;;5.72;;
19285;SDS011;9776;50.798;6.430;2022-11-20T08:17:58;7.55;;;6.80;;
19285;SDS011;9776;50.798;6.430;2022-11-20T08:20:26;6.85;;;6.35;;
19285;SDS011;9776;50.798;6.430;2022-11-20T08:22:56;7.35;;;6.75;;
19285;SDS011;9776;50.798;6.430;2022-11-20T08:25:24;7.15;;;6.65;;
19285;SDS011;9776;50.798;6.430;2022-11-20T08:27:51;7.00;;;6.40;;
19285;SDS011;9776;50.798;6.430;2022-11-20T08:30:18;6.75;;;6.25;;
19285;SDS011;9776;50.798;6.430;2022-11-20T08:32:44;7.28;;;6.72;;
19285;SDS011;9776;50.798;6.430;2022-11-20T08:35:11;7.30;;;6.63;;
19285;SDS011;9776;50.798;6.430;2022-11-20T08:37:38;6.28;;;5.88;;
19285;SDS011;9776;50.798;6.430;2022-11-20T08:40:08;7.13;;;6.63;;
19285;SDS011;9776;50.798;6.430;2022-11-20T08:42:36;7.13;;;6.63;;
19285;SDS011;9776;50.798;6.430;2022-11-20T08:45:03;6.68;;;6.18;;
19285;SDS011;9776;50.798;6.430;2022-11-20T08:47:30;7.45;;;6.85;;
19285;SDS011;9776;50.798;6.430;2022-11-20T08:49:57;6.50;;;6.00;;
19285;SDS011;9776;50.798;6.430;2022-11-20T08:52:23;6.57;;;6.10;;
19285;SDS011;9776;50.798;6.430;2022-11-20T08:54:50;7.63;;;7.13;;
19285;SDS011;9776;50.798;6.430;2022-11-20T08:57:18;6.80;;;6.30;;
19285;SDS011;9776;50.798;6.430;2022-11-20T08:59:45;6.22;;;5.82;;
19285;SDS011;9776;50.798;6.430;2022-11-20T09:02:11;6.28;;;5.82;;
19285;SDS011;9776;50.798;6.430;2022-11-20T09:04:38;7.05;;;6.55;;
19285;SDS011;9776;50.798;6.430;2022-11-20T09:07:05;7.00;;;6.50;;
19285;SDS011;9776;50.798;6.430;2022-11-20T09:09:31;6.22;;;5.80;;
19285;SDS011;9776;50.798;6.430;2022-11-20T09:11:58;6.72;;;6.22;;
19285;SDS011;9776;50.798;6.430;2022-11-20T09:14:26;6.32;;;5.82;;
19285;SDS011;9776;50.798;6.430;2022-11-20T09:16:55;6.43;;;5.93;;
19285;SDS011;9776;50.798;6.430;2022-11-20T09:19:23;6.13;;;5.72;;
19285;SDS011;9776;50.798;6.430;2022-11-20T09:21:49;6.95;;;6.45;;
19285;SDS011;9776;50.798;6.430;2022-11-20T09:24:16;6.55;;;6.05;;
19285;SDS011;9776;50.798;6.430;2022-11-20T09:26:43;7.50;;;6.95;;
19285;SDS011;9776;50.798;6.430;2022-11-20T09:29:10;7.07;;;6.57;;
19285;SDS011;9776;50.798;6.430;2022-11-20T09:31:38;7.15;;;6.55;;
19285;SDS011;9776;50.798;6.430;2022-11-20T09:34:04;6.55;;;6.05;;
19285;SDS011;9776;50.798;6.430;2022-11-20T09:36:31;5.88;;;5.47;;
19285;SDS011;9776;50.798;6.430;2022-11-20T09:38:58;7.38;;;6.88;;
19285;SDS011;9776;50.798;6.430;2022-11-20T09:41:29;7.50;;;7.00;;
19285;SDS011;9776;50.798;6.430;2022-11-20T09:44:13;7.13;;;6.63;;
19285;SDS011;9776;50.798;6.430;2022-11-20T09:46:55;6.80;;;6.30;;
19285;SDS011;9776;50.798;6.430;2022-11-20T09:49:28;8.15;;;7.55;;
19285;SDS011;9776;50.798;6.430;2022-11-20T09:52:07;7.75;;;7.15;;
19285;SDS011;9776;50.798;6.430;2022-11-20T09:54:44;7.10;;;6.60;;
19285;SDS011;9776;50.798;6.430;2022-11-20T09:57:12;7.03;;;6.53;;
19285;SDS011;9776;50.798;6.430;2022-11-20T09:59:43;7.03;;;6.53;;
19285;SDS011;9776;50.798;6.430;2022-11-20T10:02:16;6.72;;;6.22;;
19285;SDS011;9776;50.798;6.430;2022-11-20T10:04:52;6.30;;;5.82;;
19285;SDS011;9776;50.798;6.430;2022-11-20T10:07:24;8.05;;;7.45;;
19285;SDS011;9776;50.798;6.430;2022-11-20T10:09:56;7.60;;;7.00;;
19285;SDS011;9776;50.798;6.430;2022-11-20T10:12:27;6.53;;;6.03;;
19285;SDS011;9776;50.798;6.430;2022-11-20T10:15:04;8.02;;;7.40;;
19285;SDS011;9776;50.798;6.430;2022-11-20T10:20:30;7.70;;;7.10;;
19285;SDS011;9776;50.798;6.430;2022-11-20T10:23:12;7.88;;;7.28;;
19285;SDS011;9776;50.798;6.430;2022-11-20T10:25:49;8.27;;;7.57;;
19285;SDS011;9776;50.798;6.430;2022-11-20T10:28:25;8.68;;;7.97;;
19285;SDS011;9776;50.798;6.430;2022-11-20T10:31:02;8.40;;;7.80;;
19285;SDS011;9776;50.798;6.430;2022-11-20T10:33:36;9.30;;;8.60;;
19285;SDS011;9776;50.798;6.430;2022-11-20T10:36:08;8.95;;;8.25;;
19285;SDS011;9776;50.798;6.430;2022-11-20T10:38:42;8.90;;;8.20;;
19285;SDS011;9776;50.798;6.430;2022-11-20T10:41:15;9.88;;;9.07;;
19285;SDS011;9776;50.798;6.430;2022-11-20T10:43:53;8.45;;;7.85;;
19285;SDS011;9776;50.798;6.430;2022-11-20T10:46:29;8.68;;;7.97;;
19285;SDS011;9776;50.798;6.430;2022-11-20T10:49:09;9.32;;;8.52;;
19285;SDS011;9776;50.798;6.430;2022-11-20T10:51:41;9.25;;;8.45;;
19285;SDS011;9776;50.798;6.430;2022-11-20T10:54:20;9.32;;;8.63;;
19285;SDS011;9776;50.798;6.430;2022-11-20T10:56:53;9.25;;;8.55;;
19285;SDS011;9776;50.798;6.430;2022-11-20T10:59:35;8.90;;;8.20;;
19285;SDS011;9776;50.798;6.430;2022-11-20T11:02:19;8.75;;;8.05;;
19285;SDS011;9776;50.798;6.430;2022-11-20T11:04:49;10.70;;;9.80;;
19285;SDS011;9776;50.798;6.430;2022-11-20T11:07:18;16.83;;;15.52;;
19285;SDS011;9776;50.798;6.430;2022-11-20T11:09:49;11.82;;;10.85;;
19285;SDS011;9776;50.798;6.430;2022-11-20T11:12:19;9.45;;;8.65;;
19285;SDS011;9776;50.798;6.430;2022-11-20T11:14:48;12.70;;;11.63;;
19285;SDS011;9776;50.798;6.430;2022-11-20T11:17:23;9.43;;;8.63;;
19285;SDS011;9776;50.798;6.430;2022-11-20T11:19:58;8.85;;;8.15;;
19285;SDS011;9776;50.798;6.430;2022-11-20T11:22:34;9.15;;;8.38;;
19285;SDS011;9776;50.798;6.430;2022-11-20T11:25:11;8.68;;;7.97;;
19285;SDS011;9776;50.798;6.430;2022-11-20T11:27:46;9.73;;;8.95;;
19285;SDS011;9776;50.798;6.430;2022-11-20T11:30:14;9.13;;;8.35;;
19285;SDS011;9776;50.798;6.430;2022-11-20T11:32:42;8.95;;;8.23;;
19285;SDS011;9776;50.798;6.430;2022-11-20T11:35:24;8.30;;;7.70;;
19285;SDS011;9776;50.798;6.430;2022-11-20T11:37:53;8.27;;;7.65;;
19285;SDS011;9776;50.798;6.430;2022-11-20T11:40:28;8.23;;;7.63;;
19285;SDS011;9776;50.798;6.430;2022-11-20T11:42:57;8.10;;;7.50;;
19285;SDS011;9776;50.798;6.430;2022-11-20T11:45:26;8.63;;;7.95;;
19285;SDS011;9776;50.798;6.430;2022-11-20T11:47:52;8.30;;;7.60;;
19285;SDS011;9776;50.798;6.430;2022-11-20T11:50:21;7.72;;;7.13;;
19285;SDS011;9776;50.798;6.430;2022-11-20T11:52:55;8.63;;;7.93;;
19285;SDS011;9776;50.798;6.430;2022-11-20T11:55:33;8.25;;;7.63;;
19285;SDS011;9776;50.798;6.430;2022-11-20T11:58:14;7.65;;;7.05;;
19285;SDS011;9776;50.798;6.430;2022-11-20T12:00:52;8.10;;;7.40;;
19285;SDS011;9776;50.798;6.430;2022-11-20T12:03:24;7.82;;;7.22;;
19285;SDS011;9776;50.798;6.430;2022-11-20T12:05:58;7.80;;;7.20;;
19285;SDS011;9776;50.798;6.430;2022-11-20T12:08:27;8.15;;;7.55;;
19285;SDS011;9776;50.798;6.430;2022-11-20T12:11:00;8.02;;;7.43;;
19285;SDS011;9776;50.798;6.430;2022-11-20T12:13:34;8.20;;;7.60;;
19285;SDS011;9776;50.798;6.430;2022-11-20T12:16:07;7.30;;;6.70;;
19285;SDS011;9776;50.798;6.430;2022-11-20T12:18:38;7.72;;;7.13;;
19285;SDS011;9776;50.798;6.430;2022-11-20T12:21:09;7.88;;;7.20;;
19285;SDS011;9776;50.798;6.430;2022-11-20T12:23:50;8.70;;;8.00;;
19285;SDS011;9776;50.798;6.430;2022-11-20T12:26:29;9.63;;;8.82;;
19285;SDS011;9776;50.798;6.430;2022-11-20T12:29:07;8.32;;;7.72;;
19285;SDS011;9776;50.798;6.430;2022-11-20T12:31:49;8.27;;;7.57;;
19285;SDS011;9776;50.798;6.430;2022-11-20T12:34:37;8.27;;;7.57;;
19285;SDS011;9776;50.798;6.430;2022-11-20T12:37:18;7.85;;;7.25;;
19285;SDS011;9776;50.798;6.430;2022-11-20T12:39:56;7.57;;;6.97;;
19285;SDS011;9776;50.798;6.430;2022-11-20T12:42:38;8.30;;;7.50;;
19285;SDS011;9776;50.798;6.430;2022-11-20T12:45:35;7.82;;;7.22;;
19285;SDS011;9776;50.798;6.430;2022-11-20T12:48:16;8.07;;;7.38;;
19285;SDS011;9776;50.798;6.430;2022-11-20T12:50:52;8.13;;;7.43;;
19285;SDS011;9776;50.798;6.430;2022-11-20T12:53:33;8.05;;;7.35;;
19285;SDS011;9776;50.798;6.430;2022-11-20T12:56:11;7.32;;;6.72;;
19285;SDS011;9776;50.798;6.430;2022-11-20T12:58:53;7.60;;;7.00;;
19285;SDS011;9776;50.798;6.430;2022-11-20T13:01:32;7.70;;;7.10;;
19285;SDS011;9776;50.798;6.430;2022-11-20T13:04:08;7.85;;;7.25;;
19285;SDS011;9776;50.798;6.430;2022-11-20T13:06:44;7.00;;;6.47;;
19285;SDS011;9776;50.798;6.430;2022-11-20T13:09:14;8.25;;;7.65;;
19285;SDS011;9776;50.798;6.430;2022-11-20T13:11:43;7.68;;;7.07;;
19285;SDS011;9776;50.798;6.430;2022-11-20T13:14:19;9.00;;;8.27;;
19285;SDS011;9776;50.798;6.430;2022-11-20T13:16:58;7.95;;;7.25;;
19285;SDS011;9776;50.798;6.430;2022-11-20T13:19:27;8.23;;;7.53;;
19285;SDS011;9776;50.798;6.430;2022-11-20T13:21:54;8.10;;;7.50;;
19285;SDS011;9776;50.798;6.430;2022-11-20T13:24:24;8.05;;;7.45;;
19285;SDS011;9776;50.798;6.430;2022-11-20T13:27:03;8.38;;;7.78;;
19285;SDS011;9776;50.798;6.430;2022-11-20T13:29:31;8.85;;;8.15;;
19285;SDS011;9776;50.798;6.430;2022-11-20T13:32:02;8.75;;;8.05;;
19285;SDS011;9776;50.798;6.430;2022-11-20T13:34:31;8.60;;;7.90;;
19285;SDS011;9776;50.798;6.430;2022-11-20T13:36:59;8.57;;;7.90;;
19285;SDS011;9776;50.798;6.430;2022-11-20T13:39:30;8.55;;;7.88;;
19285;SDS011;9776;50.798;6.430;2022-11-20T13:41:59;8.88;;;8.07;;
19285;SDS011;9776;50.798;6.430;2022-11-20T13:44:28;8.15;;;7.45;;
19285;SDS011;9776;50.798;6.430;2022-11-20T13:47:02;8.18;;;7.47;;
19285;SDS011;9776;50.798;6.430;2022-11-20T13:49:29;8.38;;;7.68;;
19285;SDS011;9776;50.798;6.430;2022-11-20T13:52:02;8.93;;;8.23;;
19285;SDS011;9776;50.798;6.430;2022-11-20T13:57:54;8.25;;;7.60;;
19285;SDS011;9776;50.798;6.430;2022-11-20T14:00:29;7.85;;;7.25;;
19285;SDS011;9776;50.798;6.430;2022-11-20T14:03:00;7.20;;;6.70;;
19285;SDS011;9776;50.798;6.430;2022-11-20T14:05:38;8.30;;;7.63;;
19285;SDS011;9776;50.798;6.430;2022-11-20T14:08:16;7.95;;;7.35;;
19285;SDS011;9776;50.798;6.430;2022-11-20T14:11:06;8.35;;;7.65;;
19285;SDS011;9776;50.798;6.430;2022-11-20T14:13:39;8.45;;;7.75;;
19285;SDS011;9776;50.798;6.430;2022-11-20T14:16:22;8.27;;;7.63;;
19285;SDS011;9776;50.798;6.430;2022-11-20T14:18:48;7.50;;;6.90;;
19285;SDS011;9776;50.798;6.430;2022-11-20T14:21:21;8.93;;;8.23;;
19285;SDS011;9776;50.798;6.430;2022-11-20T14:23:51;7.90;;;7.30;;
19285;SDS011;9776;50.798;6.430;2022-11-20T14:26:21;8.85;;;8.15;;
19285;SDS011;9776;50.798;6.430;2022-11-20T14:28:48;10.05;;;9.25;;
19285;SDS011;9776;50.798;6.430;2022-11-20T14:31:18;8.38;;;7.68;;
19285;SDS011;9776;50.798;6.430;2022-11-20T14:33:49;9.25;;;8.45;;
19285;SDS011;9776;50.798;6.430;2022-11-20T14:36:33;8.50;;;7.80;;
19285;SDS011;9776;50.798;6.430;2022-11-20T14:39:57;7.68;;;7.07;;
19285;SDS011;9776;50.798;6.430;2022-11-20T14:42:29;8.65;;;7.85;;
19285;SDS011;9776;50.798;6.430;2022-11-20T14:45:04;4.82;;;4.43;;
19285;SDS011;9776;50.798;6.430;2022-11-20T14:47:35;5.05;;;4.65;;
19285;SDS011;9776;50.798;6.430;2022-11-20T14:50:02;3.80;;;3.50;;
19285;SDS011;9776;50.798;6.430;2022-11-20T14:52:29;3.17;;;2.97;;
19285;SDS011;9776;50.798;6.430;2022-11-20T14:54:57;4.05;;;3.75;;
19285;SDS011;9776;50.798;6.430;2022-11-20T14:57:26;2.70;;;2.50;;
19285;SDS011;9776;50.798;6.430;2022-11-20T15:00:05;2.50;;;2.30;;
19285;SDS011;9776;50.798;6.430;2022-11-20T15:02:34;2.75;;;2.55;;
19285;SDS011;9776;50.798;6.430;2022-11-20T15:05:05;2.95;;;2.83;;
19285;SDS011;9776;50.798;6.430;2022-11-20T15:07:32;3.40;;;3.20;;
19285;SDS011;9776;50.798;6.430;2022-11-20T15:10:01;3.05;;;2.85;;
19285;SDS011;9776;50.798;6.430;2022-11-20T15:12:31;3.00;;;2.80;;
19285;SDS011;9776;50.798;6.430;2022-11-20T15:15:00;2.50;;;2.40;;
19285;SDS011;9776;50.798;6.430;2022-11-20T15:17:27;2.40;;;2.30;;
19285;SDS011;9776;50.798;6.430;2022-11-20T15:19:54;2.20;;;2.10;;
19285;SDS011;9776;50.798;6.430;2022-11-20T15:22:21;2.10;;;2.00;;
19285;SDS011;9776;50.798;6.430;2022-11-20T15:24:48;2.70;;;2.50;;